aviador You're here:

KMOB Decoded Metar

MOBILE in AL, USA
Report Time2018-02-18 17:56:00
UTC Time2018-02-18 18:14:42
Flight Rules vfr VFR
WindCalm
Visibility9999 m
Phenomena:N/A
Clouds:Scattered 014 Hf
Broken 030 Hf
Broken 250 Hf
Expected CloudBase > 2,400 ft AGL from Temp-Dew spread
Ceiling3,000 ft
Temp23°C (ISA +8)
Dew Point17°C (69% RH)
QNH1023 hPa
Density Alt1,106 ft
Elevation207 ft
Report Wrong Elevation
Raw Report
KMOB 181756Z 00000KT 10SM SCT014 BKN030 BKN250 23/17 A3021 RMK AO2
SLP228 T02280172 10233 20161 58008=

Extra information for KMOB:More info

Metar Taf Metar & Taf Last 4 Metars F.Rules Stats Wind Profile Meteogram Temp Stats Airport Information Weather charts Add Link Nearby VenuesMetar ALERT Operation Metar Decoded Social comments

AIRNAV info for KMOB